Impacts TAF Board
For situational awareness. Not to be used for flight planning purposes.
IDs:

KDAL - Dallas/Love Fld, TX, US

Issued at 2330 UTC 05 Dec 2019
Updated at 0101 UTC 06 Dec 2019
Potential Impact None Slight Moderate High
Time0053Z 06/02Z 06/03Z 06/04Z 06/05Z 06/06Z 06/07Z 06/08Z 06/09Z 06/10Z 06/11Z 06/12Z 06/13Z 06/14Z>>
Type OBS PRVL PRVL PRVL PRVL PRVL PRVL PRVL PRVL PRVL PRVL PRVL PRVL PRVL
VIS 10 >6 >6 >6 >6 >6 >6 >6 >6 >6 >6 >6 >6 >6
CIG -- 250 250 250 250 -- -- -- -- -- -- -- -- --
Cover SCT BKN BKN BKN BKN FEW FEW FEW FEW FEW FEW FEW FEW FEW
FltCat VFR VFR VFR VFR VFR VFR VFR VFR VFR VFR VFR VFR VFR VFR
WX -- -- -- -- -- -- -- -- -- -- -- -- -- --
WDir 170 160 160 160 160 220 220 220 310 310 310 310 310 310
WSpd 7 14 14 14 14 14 14 14 14 14 14 14 14 14
WGst -- -- -- -- -- -- -- -- 24 24 24 24 24 24
Raw TAF
KDAL 052330Z 0600/0624 16014KT P6SM FEW025 SCT120 BKN250
  FM060600 22014KT P6SM FEW300
  FM060900 31014G24KT P6SM FEW300
  FM061600 34018G28KT P6SM BKN024
  FM062100 34015KT P6SM BKN045


Raw METAR
KDAL 060053Z 17007KT 10SM FEW120 SCT250 20/14 A2988 RMK AO2 SLP114 T02000144 /
KDAL 052353Z 17009G16KT 10SM SCT120 BKN250 21/14 A2986 RMK AO2 SLP109 T02060144 10222 20206 53004 $
KDAL 052253Z 17013G19KT 10SM FEW024 SCT120 BKN250 21/14 A2986 RMK AO2 SLP107 T02110144 /

METAR Board
Radar Display
Forecast Discussion
For situational awareness. Not to be used for flight planning purposes.